createdAt,value
2022-11-24T00:00:31.290Z,21.10
2022-11-24T00:01:24.858Z,21.08
2022-11-24T00:02:18.604Z,21.05
2022-11-24T00:03:12.084Z,21.07
2022-11-24T00:04:05.492Z,21.10
2022-11-24T00:04:59.022Z,21.07
2022-11-24T00:05:52.565Z,21.14
2022-11-24T00:06:46.105Z,21.10
2022-11-24T00:07:39.708Z,21.10
2022-11-24T00:08:33.203Z,21.10
2022-11-24T00:09:26.749Z,21.08
2022-11-24T00:10:20.291Z,21.16
2022-11-24T00:11:13.836Z,21.16
2022-11-24T00:12:07.370Z,21.08
2022-11-24T00:13:00.926Z,21.16
2022-11-24T00:13:54.469Z,21.10
2022-11-24T00:14:48.002Z,21.11
2022-11-24T00:15:41.544Z,21.04
2022-11-24T00:16:35.217Z,21.10
2022-11-24T00:17:28.616Z,21.18
2022-11-24T00:18:22.190Z,21.13
2022-11-24T00:19:19.588Z,21.10
2022-11-24T00:20:09.271Z,21.10
2022-11-24T00:21:02.800Z,21.10
2022-11-24T00:21:56.349Z,21.05
2022-11-24T00:22:49.885Z,21.13
2022-11-24T00:23:43.439Z,21.08
2022-11-24T00:24:36.978Z,21.05
2022-11-24T00:25:30.513Z,21.08
2022-11-24T00:26:24.045Z,21.10
2022-11-24T00:27:17.592Z,21.11
2022-11-24T00:28:11.129Z,21.05
2022-11-24T00:29:04.684Z,21.10
2022-11-24T00:29:58.222Z,21.08
2022-11-24T00:30:51.831Z,21.04
2022-11-24T00:31:45.315Z,21.10
2022-11-24T00:32:38.839Z,21.04
2022-11-24T00:33:32.388Z,20.97
2022-11-24T00:34:25.940Z,20.98
2022-11-24T00:35:19.486Z,21.08
2022-11-24T00:36:03.146Z,21.05
2022-11-24T00:36:56.692Z,20.97
2022-11-24T00:37:50.239Z,21.01
2022-11-24T00:38:43.777Z,21.01
2022-11-24T00:39:37.327Z,20.98
2022-11-24T00:40:35.007Z,21.03
2022-11-24T00:41:24.409Z,20.97
2022-11-24T00:42:17.946Z,21.00
2022-11-24T00:43:11.487Z,21.04
2022-11-24T00:44:05.023Z,21.07
2022-11-24T00:44:58.564Z,21.00
2022-11-24T00:45:52.217Z,21.08
2022-11-24T00:46:45.876Z,21.04
2022-11-24T00:47:39.233Z,21.05
2022-11-24T00:48:32.750Z,20.95
2022-11-24T00:49:26.301Z,20.98
2022-11-24T00:50:19.846Z,21.03
2022-11-24T00:51:13.394Z,21.04
2022-11-24T00:52:06.938Z,20.98
2022-11-24T00:53:00.479Z,21.04
2022-11-24T00:53:54.024Z,21.01
2022-11-24T00:54:47.572Z,20.95
2022-11-24T00:55:41.134Z,21.04
2022-11-24T00:56:34.689Z,21.01
2022-11-24T00:57:38.480Z,21.03
2022-11-24T00:58:32.024Z,20.97
2022-11-24T00:59:25.576Z,21.03
2022-11-24T01:00:19.112Z,20.95
2022-11-24T01:01:12.679Z,21.01
2022-11-24T01:02:06.250Z,21.04
2022-11-24T01:02:59.840Z,21.01
2022-11-24T01:03:53.276Z,21.03
2022-11-24T01:04:46.817Z,20.97
2022-11-24T01:05:40.362Z,20.98
2022-11-24T01:06:33.899Z,21.00
2022-11-24T01:07:27.493Z,20.98
2022-11-24T01:08:21.001Z,21.00
2022-11-24T01:09:14.573Z,21.03
2022-11-24T01:10:08.114Z,21.00
2022-11-24T01:11:01.657Z,20.95
2022-11-24T01:11:55.200Z,20.93
2022-11-24T01:12:48.747Z,20.95
2022-11-24T01:13:42.286Z,20.97
2022-11-24T01:14:36.404Z,20.90
2022-11-24T01:15:29.412Z,20.98
2022-11-24T01:16:22.991Z,20.88
2022-11-24T01:17:16.445Z,20.88
2022-11-24T01:18:10.019Z,20.88
2022-11-24T01:19:03.535Z,20.93
2022-11-24T01:19:57.082Z,20.85
2022-11-24T01:20:50.616Z,20.86
2022-11-24T01:21:44.154Z,20.88
2022-11-24T01:22:37.702Z,20.95
2022-11-24T01:23:31.242Z,20.85
2022-11-24T01:24:14.905Z,20.89
2022-11-24T01:25:18.707Z,20.89
2022-11-24T01:26:12.244Z,20.90
2022-11-24T01:27:05.779Z,20.85
2022-11-24T01:27:59.335Z,20.88
2022-11-24T01:28:52.870Z,20.89
2022-11-24T01:29:46.420Z,20.88
2022-11-24T01:30:39.998Z,20.86
2022-11-24T01:31:33.507Z,20.90
2022-11-24T01:32:27.061Z,20.92
2022-11-24T01:33:20.637Z,20.88
2022-11-24T01:34:14.158Z,20.83
2022-11-24T01:35:07.711Z,20.85
2022-11-24T01:36:01.250Z,20.85
2022-11-24T01:36:44.920Z,20.86
2022-11-24T01:37:38.464Z,20.85
2022-11-24T01:38:32.003Z,20.80
2022-11-24T01:39:25.539Z,20.80
2022-11-24T01:40:19.085Z,20.83
2022-11-24T01:41:12.621Z,20.92
2022-11-24T01:41:56.286Z,20.86
2022-11-24T01:42:49.832Z,20.90
2022-11-24T01:43:43.373Z,20.83
2022-11-24T01:44:37.109Z,20.80
2022-11-24T01:45:30.454Z,20.86
2022-11-24T01:46:24.159Z,20.82
2022-11-24T01:47:17.523Z,20.79
2022-11-24T01:48:11.062Z,20.85
2022-11-24T01:49:14.879Z,20.82
2022-11-24T01:50:08.399Z,20.80
2022-11-24T01:51:01.946Z,20.89
2022-11-24T01:51:55.483Z,20.88
2022-11-24T01:52:49.017Z,20.80
2022-11-24T01:53:42.553Z,20.80
2022-11-24T01:54:36.470Z,20.83
2022-11-24T01:55:29.642Z,20.86
2022-11-24T01:56:23.188Z,20.73
2022-11-24T01:57:16.725Z,20.75
2022-11-24T01:58:10.265Z,20.85
2022-11-24T01:59:03.813Z,20.83
2022-11-24T02:00:08.112Z,20.85
2022-11-24T02:01:01.703Z,20.88
2022-11-24T02:01:45.381Z,20.82
2022-11-24T02:02:38.929Z,20.82
2022-11-24T02:03:32.427Z,20.85
2022-11-24T02:04:25.984Z,20.79
2022-11-24T02:05:19.505Z,20.85
2022-11-24T02:06:13.065Z,20.75
2022-11-24T02:07:06.636Z,20.74
2022-11-24T02:08:00.138Z,20.80
2022-11-24T02:08:53.667Z,20.75
2022-11-24T02:09:47.203Z,20.75
2022-11-24T02:10:40.736Z,20.83
2022-11-24T02:11:34.293Z,20.80
2022-11-24T02:12:17.961Z,20.80
2022-11-24T02:13:01.631Z,20.80
2022-11-24T02:13:55.165Z,20.80
2022-11-24T02:14:48.713Z,20.85
2022-11-24T02:15:42.295Z,20.83
2022-11-24T02:16:35.827Z,20.71
2022-11-24T02:17:29.373Z,20.80
2022-11-24T02:18:22.910Z,20.73
2022-11-24T02:19:16.455Z,20.83
2022-11-24T02:20:10.028Z,20.80
2022-11-24T02:21:03.552Z,20.82
2022-11-24T02:21:57.109Z,20.75
2022-11-24T02:22:50.652Z,20.79
2022-11-24T02:23:44.194Z,20.74
2022-11-24T02:24:38.234Z,20.75
2022-11-24T02:25:31.783Z,20.79
2022-11-24T02:26:15.471Z,20.75
2022-11-24T02:27:09.009Z,20.73
2022-11-24T02:28:02.556Z,20.79
2022-11-24T02:28:56.097Z,20.83
2022-11-24T02:29:49.648Z,20.73
2022-11-24T02:30:43.229Z,20.77
2022-11-24T02:31:36.773Z,20.74
2022-11-24T02:32:30.274Z,20.74
2022-11-24T02:33:23.828Z,20.75
2022-11-24T02:34:07.495Z,20.74
2022-11-24T02:35:01.037Z,20.73
2022-11-24T02:35:44.733Z,20.74
2022-11-24T02:36:38.255Z,20.74
2022-11-24T02:37:31.804Z,20.77
2022-11-24T02:38:25.352Z,20.70
2022-11-24T02:39:18.893Z,20.71
2022-11-24T02:40:02.579Z,20.73
2022-11-24T02:40:56.119Z,20.77
2022-11-24T02:41:49.658Z,20.73
2022-11-24T02:42:53.455Z,20.71
2022-11-24T02:43:47.011Z,20.71
2022-11-24T02:44:40.563Z,20.75
2022-11-24T02:45:44.370Z,20.73
2022-11-24T02:46:37.942Z,20.68
2022-11-24T02:47:21.630Z,20.73
2022-11-24T02:48:15.176Z,20.68
2022-11-24T02:49:08.717Z,20.79
2022-11-24T02:50:02.253Z,20.68
2022-11-24T02:50:55.824Z,20.73
2022-11-24T02:51:49.357Z,20.75
2022-11-24T02:52:33.029Z,20.71
2022-11-24T02:53:26.578Z,20.68
2022-11-24T02:54:20.119Z,20.60
2022-11-24T02:55:13.666Z,20.73
2022-11-24T02:56:07.221Z,20.67
2022-11-24T02:57:00.758Z,20.74
2022-11-24T02:57:44.446Z,20.63
2022-11-24T02:58:38.004Z,20.67
2022-11-24T02:59:41.552Z,20.67
2022-11-24T03:00:35.099Z,20.67
2022-11-24T03:01:28.727Z,20.68
2022-11-24T03:02:22.227Z,20.68
2022-11-24T03:03:15.771Z,20.65
2022-11-24T03:04:09.301Z,20.68
2022-11-24T03:05:02.843Z,20.71
2022-11-24T03:05:56.379Z,20.73
2022-11-24T03:06:49.935Z,20.74
2022-11-24T03:07:43.494Z,20.65
2022-11-24T03:08:37.001Z,20.64
2022-11-24T03:09:30.539Z,20.67
2022-11-24T03:10:24.081Z,20.67
2022-11-24T03:11:17.623Z,20.73
2022-11-24T03:12:11.176Z,20.73
2022-11-24T03:13:04.717Z,20.63
2022-11-24T03:13:58.249Z,20.60
2022-11-24T03:14:51.802Z,20.64
2022-11-24T03:15:45.404Z,20.64
2022-11-24T03:16:38.897Z,20.64
2022-11-24T03:17:32.432Z,20.71
2022-11-24T03:18:26.007Z,20.64
2022-11-24T03:19:19.553Z,20.65
2022-11-24T03:20:13.300Z,20.63
2022-11-24T03:21:06.847Z,20.60
2022-11-24T03:22:00.407Z,20.55
2022-11-24T03:22:53.928Z,20.61
2022-11-24T03:23:47.483Z,20.64
2022-11-24T03:24:41.025Z,20.64
2022-11-24T03:25:34.605Z,20.55
2022-11-24T03:26:28.144Z,20.56
2022-11-24T03:27:31.976Z,20.60
2022-11-24T03:28:25.498Z,20.64
2022-11-24T03:29:19.065Z,20.61
2022-11-24T03:30:12.614Z,20.63
2022-11-24T03:31:06.278Z,20.56
2022-11-24T03:31:59.729Z,20.58
2022-11-24T03:32:53.268Z,20.60
2022-11-24T03:33:46.913Z,20.61
2022-11-24T03:34:40.445Z,20.61
2022-11-24T03:35:34.006Z,20.64
2022-11-24T03:36:27.573Z,20.64
2022-11-24T03:37:21.140Z,20.60
2022-11-24T03:38:14.674Z,20.65
2022-11-24T03:39:08.210Z,20.56
2022-11-24T03:40:01.760Z,20.49
2022-11-24T03:40:55.298Z,20.52
2022-11-24T03:41:48.845Z,20.49
2022-11-24T03:42:42.388Z,20.46
2022-11-24T03:43:41.970Z,20.60
2022-11-24T03:44:29.618Z,20.46
2022-11-24T03:45:45.345Z,20.46
2022-11-24T03:46:17.274Z,20.55
2022-11-24T03:47:10.781Z,20.50
2022-11-24T03:48:04.350Z,20.53
2022-11-24T03:48:57.893Z,20.52
2022-11-24T03:49:51.450Z,20.52
2022-11-24T03:50:44.995Z,20.53
2022-11-24T03:51:38.550Z,20.55
2022-11-24T03:52:32.096Z,20.49
2022-11-24T03:53:25.613Z,20.56
2022-11-24T03:54:19.161Z,20.58
2022-11-24T03:55:12.702Z,20.58
2022-11-24T03:56:06.247Z,20.48
2022-11-24T03:56:59.782Z,20.48
2022-11-24T03:57:53.327Z,20.53
2022-11-24T03:58:46.862Z,20.56
2022-11-24T03:59:40.398Z,20.55
2022-11-24T04:00:33.937Z,20.52
2022-11-24T04:01:27.566Z,20.48
2022-11-24T04:02:21.047Z,20.55
2022-11-24T04:03:14.635Z,20.56
2022-11-24T04:03:58.221Z,20.60
2022-11-24T04:04:51.756Z,20.49
2022-11-24T04:05:52.805Z,20.48
2022-11-24T04:06:46.349Z,20.52
2022-11-24T04:07:40.041Z,20.52
2022-11-24T04:08:33.453Z,20.52
2022-11-24T04:09:26.991Z,20.50
2022-11-24T04:10:10.655Z,20.46
2022-11-24T04:11:04.200Z,20.44
2022-11-24T04:12:07.995Z,20.49
2022-11-24T04:13:01.563Z,20.46
2022-11-24T04:13:55.110Z,20.50
2022-11-24T04:14:48.646Z,20.49
2022-11-24T04:15:42.286Z,20.48
2022-11-24T04:16:35.823Z,20.52
2022-11-24T04:17:29.299Z,20.48
2022-11-24T04:18:22.850Z,20.48
2022-11-24T04:19:16.401Z,20.49
2022-11-24T04:20:09.946Z,20.46
2022-11-24T04:21:03.498Z,20.49
2022-11-24T04:21:57.034Z,20.49
2022-11-24T04:22:40.713Z,20.48
2022-11-24T04:23:34.356Z,20.49
2022-11-24T04:24:27.825Z,20.46
2022-11-24T04:25:21.402Z,20.48
2022-11-24T04:26:14.966Z,20.48
2022-11-24T04:27:08.515Z,20.46
2022-11-24T04:28:02.098Z,20.46
2022-11-24T04:28:55.641Z,20.42
2022-11-24T04:29:49.179Z,20.42
2022-11-24T04:30:32.853Z,20.52
2022-11-24T04:31:26.487Z,20.48
2022-11-24T04:32:30.223Z,20.44
2022-11-24T04:33:23.765Z,20.42
2022-11-24T04:34:07.431Z,20.48
2022-11-24T04:35:00.989Z,20.48
2022-11-24T04:35:54.537Z,20.49
2022-11-24T04:36:48.083Z,20.44
2022-11-24T04:37:41.638Z,20.49
2022-11-24T04:39:23.084Z,20.41
2022-11-24T04:39:29.058Z,20.48
2022-11-24T04:40:22.266Z,20.44
2022-11-24T04:41:15.821Z,20.49
2022-11-24T04:42:09.362Z,20.48
2022-11-24T04:43:02.908Z,20.48
2022-11-24T04:43:56.450Z,20.53
2022-11-24T04:44:49.995Z,20.60
2022-11-24T04:45:43.535Z,20.56
2022-11-24T04:46:37.104Z,20.64
2022-11-24T04:47:30.628Z,20.58
2022-11-24T04:48:24.172Z,20.63
2022-11-24T04:49:17.713Z,20.63
2022-11-24T04:50:11.250Z,20.73
2022-11-24T04:51:04.795Z,20.73
2022-11-24T04:51:58.342Z,20.75
2022-11-24T04:52:51.896Z,20.80
2022-11-24T04:53:45.439Z,20.79
2022-11-24T04:54:38.994Z,20.83
2022-11-24T04:55:32.507Z,20.74
2022-11-24T04:56:26.058Z,20.79
2022-11-24T04:57:19.601Z,20.80
2022-11-24T04:58:13.151Z,20.82
2022-11-24T04:59:08.519Z,20.79
2022-11-24T05:00:00.235Z,20.89
2022-11-24T05:00:53.770Z,20.85
2022-11-24T05:01:47.394Z,20.85
2022-11-24T05:02:40.850Z,20.86
2022-11-24T05:03:34.399Z,20.92
2022-11-24T05:04:28.024Z,20.85
2022-11-24T05:05:21.492Z,20.86
2022-11-24T05:06:15.026Z,20.89
2022-11-24T05:07:12.284Z,20.86
2022-11-24T05:08:02.210Z,20.82
2022-11-24T05:08:55.612Z,20.86
2022-11-24T05:09:59.424Z,20.83
2022-11-24T05:10:42.693Z,20.88
2022-11-24T05:11:46.496Z,20.92
2022-11-24T05:12:40.023Z,20.93
2022-11-24T05:13:33.553Z,20.93
2022-11-24T05:14:27.083Z,20.93
2022-11-24T05:15:20.620Z,20.97
2022-11-24T05:16:14.213Z,21.05
2022-11-24T05:16:57.810Z,21.07
2022-11-24T05:17:51.327Z,21.10
2022-11-24T05:18:44.858Z,21.04
2022-11-24T05:19:38.376Z,21.03
2022-11-24T05:20:31.907Z,21.05
2022-11-24T05:21:25.444Z,21.11
2022-11-24T05:22:18.968Z,21.13
2022-11-24T05:23:12.501Z,21.14
2022-11-24T05:24:06.025Z,21.07
2022-11-24T05:24:59.580Z,21.11
2022-11-24T05:25:53.103Z,21.18
2022-11-24T05:26:46.638Z,21.10
2022-11-24T05:27:40.152Z,21.07
2022-11-24T05:28:33.691Z,21.08
2022-11-24T05:29:27.200Z,21.07
2022-11-24T05:30:20.735Z,21.08
2022-11-24T05:31:14.303Z,21.16
2022-11-24T05:32:07.809Z,21.08
2022-11-24T05:33:01.342Z,21.14
2022-11-24T05:33:54.875Z,21.08
2022-11-24T05:34:38.527Z,21.05
2022-11-24T05:35:32.052Z,21.10
2022-11-24T05:36:25.608Z,21.08
2022-11-24T05:37:19.119Z,21.08
2022-11-24T05:38:12.661Z,21.13
2022-11-24T05:39:06.209Z,21.13
2022-11-24T05:39:59.770Z,21.16
2022-11-24T05:41:03.572Z,21.08
2022-11-24T05:41:57.084Z,21.05
2022-11-24T05:42:50.627Z,21.16
2022-11-24T05:43:44.167Z,21.19
2022-11-24T05:44:37.690Z,21.13
2022-11-24T05:45:31.722Z,21.20
2022-11-24T05:46:25.298Z,21.16
2022-11-24T05:47:18.805Z,21.11
2022-11-24T05:48:12.354Z,21.20
2022-11-24T05:49:05.886Z,21.25
2022-11-24T05:49:59.462Z,21.19
2022-11-24T05:50:53.021Z,21.18
2022-11-24T05:51:46.539Z,21.19
2022-11-24T05:52:40.066Z,21.22
2022-11-24T05:53:33.605Z,21.10
2022-11-24T05:54:27.132Z,21.19
2022-11-24T05:55:20.702Z,21.18
2022-11-24T05:56:24.480Z,21.26
2022-11-24T05:57:17.997Z,21.29
2022-11-24T05:58:11.520Z,21.30
2022-11-24T05:59:09.621Z,21.40
2022-11-24T05:59:58.601Z,21.35
2022-11-24T06:00:52.137Z,21.34
2022-11-24T06:01:45.771Z,21.40
2022-11-24T06:02:39.328Z,21.30
2022-11-24T06:03:32.727Z,21.40
2022-11-24T06:04:26.256Z,21.28
2022-11-24T06:05:19.781Z,21.37
2022-11-24T06:06:13.311Z,21.26
2022-11-24T06:07:06.850Z,21.23
2022-11-24T06:08:00.367Z,21.28
2022-11-24T06:08:53.901Z,21.23
2022-11-24T06:09:47.432Z,21.10
2022-11-24T06:10:40.953Z,21.11
2022-11-24T06:11:34.504Z,21.11
2022-11-24T06:12:28.021Z,21.14
2022-11-24T06:13:21.630Z,21.10
2022-11-24T06:14:15.086Z,21.03
2022-11-24T06:15:08.615Z,21.05
2022-11-24T06:16:02.216Z,20.95
2022-11-24T06:16:55.750Z,21.01
2022-11-24T06:17:49.203Z,20.92
2022-11-24T06:18:42.744Z,21.00
2022-11-24T06:19:41.515Z,21.07
2022-11-24T06:20:32.606Z,20.98
2022-11-24T06:21:23.343Z,20.93
2022-11-24T06:22:16.877Z,21.04
2022-11-24T06:23:10.414Z,20.98
2022-11-24T06:24:03.961Z,20.97
2022-11-24T06:24:57.488Z,21.05
2022-11-24T06:25:51.704Z,21.10
2022-11-24T06:26:34.671Z,21.08
2022-11-24T06:27:29.735Z,21.04
2022-11-24T06:28:23.254Z,21.11
2022-11-24T06:29:16.776Z,21.13
2022-11-24T06:30:10.305Z,21.16
2022-11-24T06:31:03.861Z,21.14
2022-11-24T06:31:57.490Z,21.11
2022-11-24T06:32:50.923Z,21.11
2022-11-24T06:33:44.465Z,21.10
2022-11-24T06:34:37.985Z,21.18
2022-11-24T06:35:37.909Z,21.19
2022-11-24T06:36:31.453Z,21.13
2022-11-24T06:37:24.987Z,21.19
2022-11-24T06:38:22.989Z,21.20
2022-11-24T06:39:12.046Z,21.19
2022-11-24T06:40:05.573Z,21.25
2022-11-24T06:40:49.234Z,21.22
2022-11-24T06:41:53.040Z,21.11
2022-11-24T06:42:46.599Z,21.22
2022-11-24T06:43:40.119Z,21.13
2022-11-24T06:44:34.079Z,21.10
2022-11-24T06:45:27.232Z,21.13
2022-11-24T06:46:10.966Z,21.11
2022-11-24T06:46:54.501Z,21.22
2022-11-24T06:47:48.059Z,21.13
2022-11-24T06:48:41.581Z,21.16
2022-11-24T06:49:35.125Z,21.08
2022-11-24T06:50:33.449Z,21.08
2022-11-24T06:51:22.194Z,21.10
2022-11-24T06:52:15.716Z,21.16
2022-11-24T06:53:09.267Z,21.11
2022-11-24T06:54:02.798Z,21.11
2022-11-24T06:54:56.328Z,21.16
2022-11-24T06:56:00.136Z,21.18
2022-11-24T06:56:53.688Z,21.14
2022-11-24T06:57:47.217Z,21.08
2022-11-24T06:58:40.763Z,21.07
2022-11-24T06:59:34.314Z,21.13
2022-11-24T07:00:27.846Z,21.11
2022-11-24T07:01:21.562Z,21.07
2022-11-24T07:02:05.035Z,21.20
2022-11-24T07:02:58.648Z,21.20
2022-11-24T07:03:52.099Z,21.16
2022-11-24T07:04:45.667Z,21.07
2022-11-24T07:05:39.197Z,21.16
2022-11-24T07:06:32.733Z,21.26
2022-11-24T07:07:26.391Z,21.22
2022-11-24T07:08:19.789Z,21.19
2022-11-24T07:09:13.324Z,21.26
2022-11-24T07:10:06.865Z,21.25
2022-11-24T07:11:00.390Z,21.22
2022-11-24T07:11:53.914Z,21.19
2022-11-24T07:12:47.439Z,21.19
2022-11-24T07:13:40.969Z,21.19
2022-11-24T07:14:44.778Z,21.22
2022-11-24T07:15:48.562Z,21.11
2022-11-24T07:16:32.352Z,21.11
2022-11-24T07:17:25.753Z,21.10
2022-11-24T07:18:19.892Z,21.10
2022-11-24T07:19:13.452Z,21.07
2022-11-24T07:20:06.978Z,21.07
2022-11-24T07:21:00.500Z,21.11
2022-11-24T07:21:54.021Z,21.16
2022-11-24T07:22:47.560Z,21.18
2022-11-24T07:23:41.086Z,21.08
2022-11-24T07:24:34.983Z,21.10
2022-11-24T07:25:28.146Z,21.19
2022-11-24T07:26:21.683Z,21.13
2022-11-24T07:27:15.213Z,21.10
2022-11-24T07:28:08.748Z,21.13
2022-11-24T07:28:52.416Z,21.18
2022-11-24T07:29:45.992Z,21.16
2022-11-24T07:30:49.805Z,21.25
2022-11-24T07:31:43.452Z,21.20
2022-11-24T07:32:36.884Z,21.26
2022-11-24T07:33:30.425Z,21.26
2022-11-24T07:34:14.086Z,21.20
2022-11-24T07:35:07.600Z,21.32
2022-11-24T07:36:01.179Z,21.22
2022-11-24T07:36:54.691Z,21.23
2022-11-24T07:37:38.351Z,21.26
2022-11-24T07:38:31.890Z,21.34
2022-11-24T07:39:25.438Z,21.25
2022-11-24T07:40:29.227Z,21.28
2022-11-24T07:41:22.766Z,21.28
2022-11-24T07:42:16.783Z,21.25
2022-11-24T07:43:11.786Z,21.28
2022-11-24T07:44:03.838Z,21.26
2022-11-24T07:44:57.378Z,21.25
2022-11-24T07:45:50.929Z,21.23
2022-11-24T07:46:44.460Z,21.30
2022-11-24T07:47:37.978Z,21.23
2022-11-24T07:48:31.506Z,21.18
2022-11-24T07:49:25.036Z,21.20
2022-11-24T07:50:18.551Z,21.20
2022-11-24T07:51:12.682Z,21.19
2022-11-24T07:52:06.216Z,21.23
2022-11-24T07:52:59.728Z,21.19
2022-11-24T07:53:53.262Z,21.19
2022-11-24T07:54:46.808Z,21.16
2022-11-24T07:55:30.451Z,21.30
2022-11-24T07:56:14.122Z,21.25
2022-11-24T07:57:07.646Z,21.28
2022-11-24T07:58:01.187Z,21.25
2022-11-24T07:58:54.717Z,21.28
2022-11-24T07:59:48.236Z,21.25
2022-11-24T08:00:41.765Z,21.23
2022-11-24T08:01:35.333Z,21.23
2022-11-24T08:02:28.861Z,21.28
2022-11-24T08:03:22.411Z,21.22
2022-11-24T08:04:15.886Z,21.29
2022-11-24T08:05:09.435Z,21.28
2022-11-24T08:06:56.498Z,21.37
2022-11-24T08:07:50.156Z,21.37
2022-11-24T08:08:43.559Z,21.38
2022-11-24T08:09:39.119Z,21.07
2022-11-24T08:10:32.644Z,20.26
2022-11-24T08:11:26.765Z,19.57
2022-11-24T08:12:20.310Z,19.68
2022-11-24T08:13:03.967Z,19.78
2022-11-24T08:13:57.489Z,20.04
2022-11-24T08:14:51.019Z,20.29
2022-11-24T08:15:44.555Z,20.46
2022-11-24T08:16:29.269Z,20.64
2022-11-24T08:17:22.775Z,20.73
2022-11-24T08:18:26.600Z,20.65
2022-11-24T08:19:10.236Z,20.85
2022-11-24T08:20:03.770Z,20.90
2022-11-24T08:20:47.432Z,20.88
2022-11-24T08:21:40.970Z,20.95
2022-11-24T08:22:34.519Z,21.03
2022-11-24T08:23:28.057Z,20.97
2022-11-24T08:24:21.592Z,21.05
2022-11-24T08:25:15.120Z,21.07
2022-11-24T08:26:08.651Z,21.14
2022-11-24T08:27:02.188Z,21.16
2022-11-24T08:27:55.711Z,21.10
2022-11-24T08:28:49.233Z,21.20
2022-11-24T08:29:42.770Z,21.20
2022-11-24T08:30:36.296Z,21.19
2022-11-24T08:31:29.869Z,21.23
2022-11-24T08:32:18.885Z,21.30
2022-11-24T08:33:07.007Z,21.25
2022-11-24T08:34:00.546Z,21.43
2022-11-24T08:34:59.576Z,21.41
2022-11-24T08:35:47.605Z,21.38
2022-11-24T08:36:31.276Z,21.38
2022-11-24T08:37:35.057Z,21.44
2022-11-24T08:38:28.588Z,21.40
2022-11-24T08:39:22.115Z,21.41
2022-11-24T08:40:15.649Z,21.32
2022-11-24T08:41:09.634Z,21.48
2022-11-24T08:42:03.168Z,21.40
2022-11-24T08:42:56.693Z,21.45
2022-11-24T08:43:50.220Z,21.47
2022-11-24T08:44:34.283Z,21.48
2022-11-24T08:45:30.572Z,21.43
2022-11-24T08:46:11.182Z,21.44
2022-11-24T08:47:04.618Z,21.34
2022-11-24T08:47:58.147Z,21.37
2022-11-24T08:48:51.671Z,21.44
2022-11-24T08:49:45.219Z,21.45
2022-11-24T08:50:38.730Z,21.40
2022-11-24T08:51:32.262Z,21.37
2022-11-24T08:52:15.925Z,21.38
2022-11-24T08:53:09.454Z,21.41
2022-11-24T08:54:02.983Z,21.34
2022-11-24T08:54:56.522Z,21.38
2022-11-24T08:55:50.074Z,21.50
2022-11-24T08:56:43.599Z,21.43
2022-11-24T08:57:37.169Z,21.35
2022-11-24T08:58:20.837Z,21.50
2022-11-24T08:59:14.458Z,21.50
2022-11-24T09:00:07.892Z,21.51
2022-11-24T09:01:01.475Z,21.47
2022-11-24T09:01:45.179Z,21.47
2022-11-24T09:02:38.649Z,21.50
2022-11-24T09:03:32.179Z,21.51
2022-11-24T09:04:25.755Z,21.59
2022-11-24T09:05:50.028Z,21.53
2022-11-24T09:06:12.761Z,21.65
2022-11-24T09:07:06.302Z,21.62
2022-11-24T09:07:59.829Z,21.59
2022-11-24T09:08:53.369Z,21.58
2022-11-24T09:09:46.907Z,21.62
2022-11-24T09:10:40.426Z,21.60
2022-11-24T09:11:24.087Z,21.65
2022-11-24T09:12:17.612Z,21.60
2022-11-24T09:13:11.141Z,21.60
2022-11-24T09:14:04.664Z,21.60
2022-11-24T09:14:58.205Z,21.62
2022-11-24T09:15:51.737Z,21.62
2022-11-24T09:16:35.456Z,21.59
2022-11-24T09:17:28.932Z,21.59
2022-11-24T09:18:25.248Z,21.58
2022-11-24T09:19:15.989Z,21.59
2022-11-24T09:20:09.526Z,21.55
2022-11-24T09:21:03.077Z,21.63
2022-11-24T09:21:56.588Z,21.50
2022-11-24T09:22:50.110Z,21.59
2022-11-24T09:23:43.655Z,21.65
2022-11-24T09:24:37.201Z,21.53
2022-11-24T09:25:30.739Z,21.60
2022-11-24T09:26:24.270Z,21.60
2022-11-24T09:27:17.820Z,21.59
2022-11-24T09:28:11.353Z,21.60
2022-11-24T09:29:04.883Z,21.56
2022-11-24T09:29:58.419Z,21.60
2022-11-24T09:30:52.000Z,21.63
2022-11-24T09:31:45.492Z,21.74
2022-11-24T09:32:39.024Z,21.65
2022-11-24T09:33:32.558Z,21.71
2022-11-24T09:34:26.085Z,21.74
2022-11-24T09:35:19.644Z,21.74
2022-11-24T09:36:13.182Z,21.73
2022-11-24T09:37:06.702Z,21.80
2022-11-24T09:38:00.242Z,21.67
2022-11-24T09:38:53.779Z,21.71
2022-11-24T09:39:47.304Z,21.69
2022-11-24T09:40:40.830Z,21.69
2022-11-24T09:41:34.507Z,21.74
2022-11-24T09:42:27.897Z,21.66
2022-11-24T09:43:21.428Z,21.66
2022-11-24T09:44:14.950Z,21.66
2022-11-24T09:45:08.477Z,21.69
2022-11-24T09:46:06.372Z,21.63
2022-11-24T09:46:55.600Z,21.60
2022-11-24T09:47:49.069Z,21.71
2022-11-24T09:48:42.594Z,21.62
2022-11-24T09:49:36.436Z,21.60
2022-11-24T09:50:29.668Z,21.60
2022-11-24T09:51:23.237Z,21.55
2022-11-24T09:52:16.754Z,21.74
2022-11-24T09:53:10.321Z,21.74
2022-11-24T09:54:03.835Z,21.58
2022-11-24T09:54:57.365Z,21.69
2022-11-24T09:55:50.891Z,21.67
2022-11-24T09:56:44.419Z,21.67
2022-11-24T09:57:38.002Z,21.69
2022-11-24T09:58:31.500Z,21.66
2022-11-24T09:59:25.041Z,21.80
2022-11-24T10:00:18.569Z,21.77
2022-11-24T10:01:12.181Z,21.82
2022-11-24T10:02:05.727Z,21.78
2022-11-24T10:02:59.177Z,21.81
2022-11-24T10:03:52.730Z,21.88
2022-11-24T10:04:46.371Z,21.77
2022-11-24T10:05:39.775Z,21.75
2022-11-24T10:06:33.328Z,21.80
2022-11-24T10:07:17.035Z,21.82
2022-11-24T10:08:10.520Z,21.80
2022-11-24T10:09:04.070Z,21.81
2022-11-24T10:09:57.593Z,21.78
2022-11-24T10:11:01.376Z,21.75
2022-11-24T10:11:54.905Z,21.74
2022-11-24T10:12:58.691Z,21.75
2022-11-24T10:13:42.341Z,21.75
2022-11-24T10:14:35.879Z,21.78
2022-11-24T10:15:29.500Z,21.75
2022-11-24T10:16:23.009Z,21.81
2022-11-24T10:17:16.493Z,21.75
2022-11-24T10:18:16.161Z,21.81
2022-11-24T10:19:03.575Z,21.84
2022-11-24T10:19:57.101Z,21.78
2022-11-24T10:20:50.632Z,21.85
2022-11-24T10:21:34.299Z,21.85
2022-11-24T10:22:27.860Z,21.88
2022-11-24T10:23:34.561Z,21.90
2022-11-24T10:24:25.165Z,21.93
2022-11-24T10:25:08.826Z,21.88
2022-11-24T10:25:52.485Z,21.88
2022-11-24T10:26:46.024Z,21.90
2022-11-24T10:27:39.550Z,21.97
2022-11-24T10:28:33.105Z,21.93
2022-11-24T10:29:27.231Z,21.85
2022-11-24T10:30:20.775Z,21.96
2022-11-24T10:31:14.342Z,21.97
2022-11-24T10:32:18.114Z,21.97
2022-11-24T10:33:11.644Z,21.93
2022-11-24T10:34:05.170Z,21.82
2022-11-24T10:34:58.707Z,21.91
2022-11-24T10:35:52.243Z,21.94
2022-11-24T10:36:45.782Z,21.96
2022-11-24T10:37:39.329Z,22.00
2022-11-24T10:38:32.838Z,21.85
2022-11-24T10:39:16.499Z,21.96
2022-11-24T10:40:17.209Z,21.97
2022-11-24T10:41:03.586Z,21.94
2022-11-24T10:41:57.109Z,21.96
2022-11-24T10:42:51.665Z,21.96
2022-11-24T10:43:45.199Z,22.01
2022-11-24T10:44:38.732Z,22.03
2022-11-24T10:45:32.262Z,22.03
2022-11-24T10:46:25.890Z,22.01
2022-11-24T10:47:09.483Z,22.00
2022-11-24T10:47:53.142Z,22.06
2022-11-24T10:48:46.693Z,22.03
2022-11-24T10:49:40.236Z,22.15
2022-11-24T10:50:33.770Z,22.16
2022-11-24T10:51:27.312Z,22.12
2022-11-24T10:52:20.840Z,22.15
2022-11-24T10:53:14.417Z,22.16
2022-11-24T10:54:07.911Z,22.11
2022-11-24T10:55:01.449Z,22.11
2022-11-24T10:55:54.980Z,22.12
2022-11-24T10:56:38.643Z,22.16
2022-11-24T10:57:32.187Z,22.18
2022-11-24T10:58:25.713Z,22.12
2022-11-24T10:59:19.234Z,22.16
2022-11-24T11:00:12.764Z,22.03
2022-11-24T11:01:06.373Z,21.98
2022-11-24T11:01:59.955Z,21.98
2022-11-24T11:02:53.491Z,21.97
2022-11-24T11:03:47.506Z,22.00
2022-11-24T11:04:41.039Z,21.94
2022-11-24T11:05:34.566Z,21.94
2022-11-24T11:06:28.103Z,21.93
2022-11-24T11:07:21.678Z,21.96
2022-11-24T11:08:15.198Z,21.90
2022-11-24T11:09:08.755Z,21.93
2022-11-24T11:10:02.252Z,21.93
2022-11-24T11:10:55.787Z,21.94
2022-11-24T11:11:39.439Z,21.98
2022-11-24T11:12:43.734Z,21.98
2022-11-24T11:13:26.508Z,21.96
2022-11-24T11:14:20.047Z,21.96
2022-11-24T11:15:03.708Z,22.03
2022-11-24T11:15:57.301Z,22.01
2022-11-24T11:16:50.781Z,21.98
2022-11-24T11:17:44.316Z,21.98
2022-11-24T11:18:37.863Z,21.98
2022-11-24T11:20:02.012Z,22.01
2022-11-24T11:20:24.934Z,22.01
2022-11-24T11:21:19.461Z,21.94
2022-11-24T11:22:13.009Z,21.96
2022-11-24T11:23:06.544Z,21.84
2022-11-24T11:24:00.078Z,21.91
2022-11-24T11:24:53.627Z,21.98
2022-11-24T11:25:47.139Z,21.96